Time;durP1;ratioP1;P1;durP2;ratioP2;P2;SDS_P1;SDS_P2;PMS_P1;PMS_P2;Temp;Humidity;BMP_temperature;BMP_pressure;BME280_temperature;BME280_humidity;BME280_pressure;Samples;Min_cycle;Max_cycle;Signal;HPM_P1;HPM_P2
2021/04/17 00:02:11;;;;;;;4.10;1.70;;;17.10;50.80;;;;;;6187396;23;20004;-83
2021/04/17 00:04:39;;;;;;;4.47;1.58;;;17.00;50.80;;;;;;6214004;23;20007;-81
2021/04/17 00:07:12;;;;;;;3.55;1.90;;;17.00;50.80;;;;;;6213698;23;20008;-81
2021/04/17 00:09:38;;;;;;;5.93;1.50;;;17.00;50.80;;;;;;6213881;23;20058;-80
2021/04/17 00:12:10;;;;;;;4.38;1.50;;;16.90;50.80;;;;;;6187240;23;20009;-79
2021/04/17 00:14:38;;;;;;;3.92;1.75;;;16.90;50.80;;;;;;6213933;23;20050;-83
2021/04/17 00:17:06;;;;;;;3.60;1.75;;;16.90;50.90;;;;;;6214121;23;20087;-82
2021/04/17 00:19:32;;;;;;;6.32;2.13;;;16.90;50.80;;;;;;6187401;23;20001;-84
2021/04/17 00:21:58;;;;;;;3.65;1.67;;;16.90;50.80;;;;;;6187229;23;20011;-82
2021/04/17 00:24:23;;;;;;;4.20;1.63;;;16.80;50.80;;;;;;6213688;23;20036;-83
2021/04/17 00:26:49;;;;;;;3.60;1.90;;;16.80;50.70;;;;;;6213669;23;20009;-79
2021/04/17 00:29:15;;;;;;;4.43;1.63;;;16.80;50.70;;;;;;6213847;23;20058;-79
2021/04/17 00:31:41;;;;;;;5.05;1.77;;;16.80;50.70;;;;;;6213807;23;20036;-81
2021/04/17 00:34:07;;;;;;;2.88;1.40;;;16.70;50.70;;;;;;6187081;23;20079;-78
2021/04/17 00:36:34;;;;;;;3.50;1.42;;;16.70;50.70;;;;;;6213731;23;20515;-82
2021/04/17 00:38:59;;;;;;;4.30;1.45;;;16.70;50.70;;;;;;6186895;23;20007;-81
2021/04/17 00:41:26;;;;;;;4.53;1.73;;;16.70;50.70;;;;;;6213527;23;20001;-81
2021/04/17 00:43:52;;;;;;;3.42;1.58;;;16.60;50.70;;;;;;6187021;23;20508;-81
2021/04/17 00:46:19;;;;;;;4.97;1.98;;;16.60;50.70;;;;;;6213197;23;20000;-81
2021/04/17 00:48:45;;;;;;;3.90;1.70;;;16.60;50.80;;;;;;6213323;23;20441;-82
2021/04/17 00:51:13;;;;;;;3.08;1.35;;;16.60;50.80;;;;;;6213643;23;20004;-81
2021/04/17 00:53:39;;;;;;;3.55;1.70;;;16.50;50.80;;;;;;6213617;23;20008;-81
2021/04/17 00:56:07;;;;;;;6.43;1.58;;;16.50;50.90;;;;;;6214142;23;20007;-78
2021/04/17 00:58:34;;;;;;;4.35;1.65;;;16.50;50.90;;;;;;6213830;23;19996;-81
2021/04/17 01:01:01;;;;;;;5.50;2.42;;;16.50;50.90;;;;;;6213643;23;20015;-82
2021/04/17 01:03:39;;;;;;;3.25;1.40;;;16.50;50.90;;;;;;6213505;23;20047;-81
2021/04/17 01:06:20;;;;;;;4.63;1.40;;;16.40;50.90;;;;;;6213620;23;20001;-82
2021/04/17 01:08:57;;;;;;;3.67;1.45;;;16.40;50.90;;;;;;6213494;23;20044;-81
2021/04/17 01:11:39;;;;;;;5.03;1.80;;;16.40;51.00;;;;;;6213685;23;19997;-81
2021/04/17 01:14:07;;;;;;;6.28;1.77;;;16.40;51.00;;;;;;6187136;23;20004;-82
2021/04/17 01:16:33;;;;;;;5.65;1.60;;;16.40;51.00;;;;;;6213141;23;20028;-78
2021/04/17 01:19:01;;;;;;;5.20;1.48;;;16.30;50.90;;;;;;6213437;23;20400;-81
2021/04/17 01:21:29;;;;;;;3.22;1.55;;;16.30;51.00;;;;;;6213453;23;20043;-81
2021/04/17 01:24:06;;;;;;;4.82;1.40;;;16.30;51.00;;;;;;6213427;23;20047;-79
2021/04/17 01:26:31;;;;;;;4.13;1.40;;;16.30;51.00;;;;;;6212937;23;20377;-81
2021/04/17 01:28:58;;;;;;;3.05;1.05;;;16.30;51.00;;;;;;6213521;23;20009;-81
2021/04/17 01:31:31;;;;;;;5.05;1.73;;;16.30;50.90;;;;;;6213797;23;20012;-81
2021/04/17 01:33:59;;;;;;;4.20;1.60;;;16.20;50.70;;;;;;6186427;23;20437;-79
2021/04/17 01:36:26;;;;;;;4.20;1.90;;;16.20;50.70;;;;;;6186595;23;20015;-82
2021/04/17 01:39:14;;;;;;;4.45;1.73;;;16.20;50.80;;;;;;6213314;23;20005;-80
2021/04/17 01:41:46;;;;;;;6.20;2.13;;;16.20;50.80;;;;;;6186498;23;20067;-79
2021/04/17 01:44:26;;;;;;;6.60;2.17;;;16.20;50.80;;;;;;6213484;23;20000;-80
2021/04/17 01:47:13;;;;;;;3.47;1.33;;;16.10;50.70;;;;;;6213400;23;20076;-82
2021/04/17 01:49:44;;;;;;;5.90;1.77;;;16.10;50.90;;;;;;6213716;23;20000;-82
2021/04/17 01:52:13;;;;;;;3.03;1.38;;;16.10;50.90;;;;;;6213227;23;20004;-79
2021/04/17 01:54:52;;;;;;;3.97;1.35;;;16.10;51.00;;;;;;6215077;23;20007;-82
2021/04/17 01:57:21;;;;;;;4.25;1.73;;;16.10;51.00;;;;;;6215240;23;19997;-78
2021/04/17 01:59:48;;;;;;;4.57;1.30;;;16.10;51.00;;;;;;6214989;23;20005;-81
2021/04/17 02:02:17;;;;;;;2.95;1.35;;;16.10;51.00;;;;;;6215110;23;20005;-79
2021/04/17 02:04:43;;;;;;;3.00;1.13;;;16.10;51.10;;;;;;6215388;23;20004;-81
2021/04/17 02:07:09;;;;;;;4.53;1.77;;;16.10;51.10;;;;;;6215287;23;20012;-80
2021/04/17 02:09:35;;;;;;;4.03;1.60;;;16.10;51.10;;;;;;6215053;23;20051;-82
2021/04/17 02:12:01;;;;;;;5.68;1.50;;;16.00;51.60;;;;;;6214906;23;20020;-81
2021/04/17 02:14:28;;;;;;;5.75;1.48;;;16.00;51.10;;;;;;6214818;23;20029;-82
2021/04/17 02:17:07;;;;;;;5.45;1.60;;;16.00;51.10;;;;;;6214775;23;20009;-82
2021/04/17 02:19:43;;;;;;;4.72;1.50;;;16.00;51.20;;;;;;6215019;23;20051;-81
2021/04/17 02:22:10;;;;;;;3.42;1.35;;;16.00;51.20;;;;;;6215291;23;20001;-82
2021/04/17 02:24:36;;;;;;;3.05;1.27;;;16.00;51.20;;;;;;6214890;23;20000;-79
2021/04/17 02:27:02;;;;;;;4.68;1.48;;;15.90;51.20;;;;;;6188051;23;20939;-81
2021/04/17 02:29:27;;;;;;;3.83;1.38;;;15.90;51.20;;;;;;6187766;23;20012;-83
2021/04/17 02:31:53;;;;;;;3.78;1.48;;;15.90;51.20;;;;;;6188110;23;20007;-79
2021/04/17 02:34:20;;;;;;;4.97;1.85;;;15.90;51.10;;;;;;6214719;23;20005;-81
2021/04/17 02:36:46;;;;;;;3.92;1.40;;;15.90;51.10;;;;;;6214643;23;20016;-80
2021/04/17 02:39:12;;;;;;;3.50;1.58;;;15.90;51.10;;;;;;6215067;23;20100;-79
2021/04/17 02:41:37;;;;;;;3.28;1.33;;;15.90;51.10;;;;;;6214631;23;20011;-79
2021/04/17 02:44:03;;;;;;;4.75;1.73;;;15.80;51.10;;;;;;6214465;23;20005;-79
2021/04/17 02:46:30;;;;;;;3.05;1.00;;;15.80;51.10;;;;;;6214789;23;20000;-80
2021/04/17 02:48:56;;;;;;;4.32;1.25;;;15.80;51.10;;;;;;6214788;23;20028;-80
2021/04/17 02:51:22;;;;;;;6.13;1.70;;;15.80;51.80;;;;;;6214552;23;20008;-79
2021/04/17 02:53:49;;;;;;;4.90;1.70;;;15.80;51.20;;;;;;6214474;23;20437;-79
2021/04/17 02:56:15;;;;;;;2.90;1.35;;;15.80;51.20;;;;;;6187965;23;20095;-80
2021/04/17 02:58:41;;;;;;;3.30;1.67;;;15.70;51.20;;;;;;6214741;23;20005;-78
2021/04/17 03:01:06;;;;;;;3.33;1.23;;;15.70;51.20;;;;;;6214414;23;20011;-81
2021/04/17 03:03:32;;;;;;;3.45;1.30;;;15.70;51.20;;;;;;6214472;23;20007;-80
2021/04/17 03:05:58;;;;;;;3.50;1.58;;;15.70;51.20;;;;;;6214472;23;20001;-78
2021/04/17 03:08:24;;;;;;;3.83;1.30;;;15.70;51.20;;;;;;6187606;23;20051;-80
2021/04/17 03:10:50;;;;;;;3.65;1.52;;;15.70;51.80;;;;;;6214329;23;20032;-81
2021/04/17 03:13:16;;;;;;;3.95;1.40;;;15.70;51.30;;;;;;6214220;23;20001;-79
2021/04/17 03:15:42;;;;;;;4.32;1.20;;;15.70;51.30;;;;;;6215030;23;20000;-80
2021/04/17 03:18:08;;;;;;;4.45;1.80;;;15.70;51.40;;;;;;6214349;23;20016;-79
2021/04/17 03:20:33;;;;;;;2.83;1.20;;;15.70;51.40;;;;;;6214506;23;20031;-79
2021/04/17 03:22:59;;;;;;;5.97;1.50;;;15.60;51.40;;;;;;6214512;23;20425;-81
2021/04/17 03:25:24;;;;;;;3.17;1.50;;;15.60;51.40;;;;;;6187937;23;20028;-82
2021/04/17 03:27:50;;;;;;;4.55;1.60;;;15.60;51.40;;;;;;6213906;23;20052;-82
2021/04/17 03:30:19;;;;;;;4.32;1.55;;;15.60;51.40;;;;;;6214170;23;20000;-80
2021/04/17 03:32:45;;;;;;;4.38;1.55;;;15.60;51.40;;;;;;6214655;23;20007;-80
2021/04/17 03:35:12;;;;;;;4.05;1.60;;;15.60;51.50;;;;;;6214484;23;20001;-78
2021/04/17 03:37:39;;;;;;;3.30;1.20;;;15.60;51.50;;;;;;6214096;23;20019;-80
2021/04/17 03:40:08;;;;;;;5.22;1.50;;;15.60;51.50;;;;;;6213962;23;19997;-78
2021/04/17 03:42:33;;;;;;;3.17;1.10;;;15.50;51.50;;;;;;6213691;23;20092;-79
2021/04/17 03:44:59;;;;;;;3.28;1.20;;;15.60;51.50;;;;;;6187398;23;20056;-79
2021/04/17 03:47:25;;;;;;;4.80;1.50;;;15.50;51.50;;;;;;6213917;23;20012;-83
2021/04/17 03:49:50;;;;;;;5.80;1.83;;;15.50;51.50;;;;;;6214063;23;20012;-82
2021/04/17 03:52:16;;;;;;;3.03;1.40;;;15.50;51.50;;;;;;6213975;23;20005;-78
2021/04/17 03:54:42;;;;;;;4.53;1.50;;;15.50;51.50;;;;;;6214198;23;20001;-81
2021/04/17 03:57:08;;;;;;;4.13;1.30;;;15.50;51.50;;;;;;6213790;23;20019;-80
2021/04/17 03:59:34;;;;;;;4.03;1.52;;;15.50;51.60;;;;;;6214134;23;20001;-80
2021/04/17 04:01:59;;;;;;;2.58;1.15;;;15.50;51.50;;;;;;6213794;23;20009;-80
2021/04/17 04:04:25;;;;;;;5.65;1.65;;;15.50;51.60;;;;;;6213777;23;19996;-77
2021/04/17 04:06:51;;;;;;;3.80;1.35;;;15.50;51.60;;;;;;6213753;23;20079;-79
2021/04/17 04:09:17;;;;;;;4.07;1.63;;;15.50;51.60;;;;;;6187379;23;20516;-82
2021/04/17 04:11:42;;;;;;;4.30;1.50;;;15.50;51.50;;;;;;6213939;23;20020;-81
2021/04/17 04:14:08;;;;;;;5.45;1.65;;;15.50;51.50;;;;;;6213940;23;20007;-80
2021/04/17 04:16:34;;;;;;;4.00;1.77;;;15.50;51.50;;;;;;6213487;23;20008;-80
2021/04/17 04:18:59;;;;;;;3.17;1.55;;;15.50;51.50;;;;;;6213815;23;20094;-81
2021/04/17 04:21:25;;;;;;;3.88;1.35;;;15.40;51.40;;;;;;6213596;23;20004;-79
2021/04/17 04:23:51;;;;;;;3.40;1.40;;;15.40;51.50;;;;;;6187147;23;20437;-79
2021/04/17 04:26:16;;;;;;;4.05;1.40;;;15.50;51.50;;;;;;6213841;23;20023;-79
2021/04/17 04:28:42;;;;;;;4.10;1.30;;;15.40;51.40;;;;;;6213756;23;20008;-80
2021/04/17 04:31:08;;;;;;;4.32;1.50;;;15.40;51.40;;;;;;6214002;23;20008;-80
2021/04/17 04:33:34;;;;;;;3.58;1.40;;;15.40;51.40;;;;;;6213596;23;20013;-80
2021/04/17 04:35:59;;;;;;;5.05;1.73;;;15.40;51.50;;;;;;6213811;23;20311;-81
2021/04/17 04:38:25;;;;;;;4.15;1.60;;;15.40;51.50;;;;;;6213473;23;20067;-79
2021/04/17 04:40:50;;;;;;;3.72;1.52;;;15.40;51.50;;;;;;6213390;23;20001;-80
2021/04/17 04:43:16;;;;;;;3.03;1.40;;;15.40;51.50;;;;;;6214093;23;20051;-79
2021/04/17 04:45:42;;;;;;;4.47;1.50;;;15.40;51.50;;;;;;6187088;23;20009;-79
2021/04/17 04:48:09;;;;;;;4.30;1.23;;;15.40;51.50;;;;;;6213611;23;20441;-80
2021/04/17 04:50:36;;;;;;;3.63;1.45;;;15.30;51.40;;;;;;6213631;23;20009;-78
2021/04/17 04:53:02;;;;;;;4.25;1.48;;;15.30;51.50;;;;;;6213329;23;20422;-79
2021/04/17 04:55:28;;;;;;;2.90;1.65;;;15.40;51.50;;;;;;6213400;23;20055;-79
2021/04/17 04:57:53;;;;;;;3.33;1.58;;;15.30;51.40;;;;;;6213821;23;20445;-80
2021/04/17 05:00:19;;;;;;;4.63;1.60;;;15.30;51.40;;;;;;6187023;23;20008;-80
2021/04/17 05:02:45;;;;;;;4.00;1.45;;;15.30;51.40;;;;;;6213985;23;20001;-81
2021/04/17 05:05:12;;;;;;;3.90;1.70;;;15.30;51.40;;;;;;6213490;23;20004;-78
2021/04/17 05:07:38;;;;;;;4.50;1.50;;;15.30;51.40;;;;;;6213331;23;20464;-81
2021/04/17 05:10:04;;;;;;;5.07;2.28;;;15.30;51.40;;;;;;6213406;23;20004;-80
2021/04/17 05:12:30;;;;;;;5.05;1.70;;;15.30;51.40;;;;;;6213562;23;20004;-81
2021/04/17 05:14:55;;;;;;;4.03;1.55;;;15.30;51.40;;;;;;6213546;23;20001;-81
2021/04/17 05:17:21;;;;;;;4.07;1.67;;;15.30;51.40;;;;;;6213581;23;20068;-80
2021/04/17 05:19:47;;;;;;;4.28;1.45;;;15.30;51.50;;;;;;6213788;23;20001;-79
2021/04/17 05:22:12;;;;;;;3.33;1.50;;;15.30;51.40;;;;;;6213319;23;20024;-82
2021/04/17 05:24:38;;;;;;;4.00;1.23;;;15.20;51.40;;;;;;6186919;23;20008;-81
2021/04/17 05:27:04;;;;;;;3.13;1.27;;;15.20;51.40;;;;;;6213834;23;20019;-79
2021/04/17 05:29:30;;;;;;;4.53;1.80;;;15.20;51.30;;;;;;6215523;23;20000;-80
2021/04/17 05:31:56;;;;;;;3.30;1.58;;;15.20;51.30;;;;;;6215294;23;20389;-82
2021/04/17 05:34:21;;;;;;;4.22;1.25;;;15.20;51.30;;;;;;6215741;23;20026;-80
2021/04/17 05:36:47;;;;;;;3.00;1.50;;;15.20;51.40;;;;;;6188854;23;20036;-81
2021/04/17 05:39:13;;;;;;;2.47;1.08;;;15.20;51.30;;;;;;6215294;23;20058;-83
2021/04/17 05:41:38;;;;;;;4.65;1.40;;;15.20;51.30;;;;;;6188498;23;20133;-81
2021/04/17 05:44:10;;;;;;;5.72;1.50;;;15.20;51.30;;;;;;6215509;23;20036;-82
2021/04/17 05:46:38;;;;;;;4.45;1.50;;;15.20;51.40;;;;;;6215236;23;20000;-83
2021/04/17 05:49:03;;;;;;;5.45;1.65;;;15.20;51.90;;;;;;6215102;23;20008;-82
2021/04/17 05:51:32;;;;;;;3.58;1.50;;;15.20;51.40;;;;;;6214963;23;20024;-82
2021/04/17 05:53:57;;;;;;;3.50;1.48;;;15.20;51.40;;;;;;6215263;23;20319;-79
2021/04/17 05:56:23;;;;;;;4.97;2.00;;;15.10;51.30;;;;;;6215479;23;20004;-79
2021/04/17 05:58:48;;;;;;;4.25;1.80;;;15.10;51.30;;;;;;6215585;23;19996;-79
2021/04/17 06:01:14;;;;;;;4.75;1.77;;;15.10;51.30;;;;;;6214847;23;20084;-81
2021/04/17 06:03:40;;;;;;;4.43;1.70;;;15.10;51.40;;;;;;6214997;23;19997;-80
2021/04/17 06:06:05;;;;;;;3.72;1.40;;;15.10;51.30;;;;;;6214672;23;20047;-78
2021/04/17 06:08:31;;;;;;;4.88;1.50;;;15.10;51.40;;;;;;6214861;23;20013;-78
2021/04/17 06:10:57;;;;;;;5.55;1.92;;;15.20;51.40;;;;;;6215053;23;20000;-78
2021/04/17 06:13:23;;;;;;;3.30;1.23;;;15.10;51.30;;;;;;6215422;23;20322;-76
2021/04/17 06:15:48;;;;;;;3.97;1.50;;;15.10;51.40;;;;;;6214983;23;20004;-79
2021/04/17 06:18:14;;;;;;;3.13;1.40;;;15.10;51.40;;;;;;6214637;23;20008;-77
2021/04/17 06:20:40;;;;;;;3.80;1.70;;;15.20;51.40;;;;;;6214566;23;20025;-78
2021/04/17 06:23:06;;;;;;;5.32;1.63;;;15.20;51.30;;;;;;6214931;23;20000;-78
2021/04/17 06:25:31;;;;;;;4.13;1.52;;;15.20;51.20;;;;;;6215026;23;20050;-79
2021/04/17 06:27:57;;;;;;;2.10;1.20;;;15.30;51.20;;;;;;6214880;23;20009;-79
2021/04/17 06:30:23;;;;;;;3.50;1.83;;;15.40;51.20;;;;;;6214842;23;20064;-78
2021/04/17 06:32:49;;;;;;;4.63;1.75;;;15.50;51.10;;;;;;6214668;23;20011;-78
2021/04/17 06:35:15;;;;;;;2.90;1.33;;;15.60;51.00;;;;;;6213546;23;20071;-79
2021/04/17 06:37:41;;;;;;;4.68;1.30;;;15.70;51.00;;;;;;6213382;23;20040;-79
2021/04/17 06:40:07;;;;;;;3.10;1.48;;;15.70;50.90;;;;;;6213875;23;20433;-79
2021/04/17 06:42:36;;;;;;;2.30;1.23;;;15.80;50.80;;;;;;6214569;23;20008;-80
2021/04/17 06:45:02;;;;;;;4.28;1.42;;;15.90;50.80;;;;;;6214615;23;20026;-79
2021/04/17 06:47:29;;;;;;;1.83;1.20;;;16.00;50.70;;;;;;6213902;23;20008;-80
2021/04/17 06:49:56;;;;;;;3.17;1.10;;;16.10;50.70;;;;;;6214497;23;20005;-78
2021/04/17 06:52:23;;;;;;;2.83;1.20;;;16.20;50.60;;;;;;6214786;23;20009;-78
2021/04/17 06:54:50;;;;;;;4.35;1.10;;;16.30;50.60;;;;;;6214302;23;20000;-78
2021/04/17 06:57:16;;;;;;;4.00;1.00;;;16.40;50.50;;;;;;6214458;23;20080;-78
2021/04/17 06:59:42;;;;;;;4.00;1.23;;;16.50;50.40;;;;;;6214512;23;20024;-78
2021/04/17 07:02:17;;;;;;;4.03;1.20;;;16.60;50.30;;;;;;6214277;23;20028;-78
2021/04/17 07:04:44;;;;;;;2.45;1.20;;;16.80;50.20;;;;;;6214566;23;20441;-79
2021/04/17 07:07:11;;;;;;;5.35;1.27;;;16.80;50.60;;;;;;6214475;23;20341;-81
2021/04/17 07:09:37;;;;;;;3.55;1.08;;;16.90;50.00;;;;;;6214302;23;20434;-80
2021/04/17 07:12:04;;;;;;;2.67;1.50;;;17.00;49.90;;;;;;6214332;23;20142;-77
2021/04/17 07:14:44;;;;;;;3.00;1.25;;;17.20;49.80;;;;;;6214330;23;20016;-76
2021/04/17 07:17:10;;;;;;;5.82;1.50;;;17.30;49.60;;;;;;6214001;23;20004;-79
2021/04/17 07:19:55;;;;;;;6.70;1.58;;;17.30;49.60;;;;;;6214170;23;20028;-75
2021/04/17 07:22:30;;;;;;;4.43;1.65;;;17.40;49.50;;;;;;6214470;23;19996;-76
2021/04/17 07:25:06;;;;;;;5.90;2.03;;;17.40;49.60;;;;;;6189167;23;20119;-77
2021/04/17 07:27:53;;;;;;;5.70;1.40;;;17.50;49.90;;;;;;6187178;23;20018;-76
2021/04/17 07:30:19;;;;;;;6.10;1.85;;;17.60;50.20;;;;;;6214251;23;20004;-76
2021/04/17 07:33:08;;;;;;;3.60;1.60;;;17.70;49.30;;;;;;6214156;23;20020;-76
2021/04/17 07:35:37;;;;;;;8.57;2.67;;;17.80;49.40;;;;;;6214156;23;20043;-76
2021/04/17 07:38:12;;;;;;;5.90;1.80;;;17.80;49.00;;;;;;6213868;23;20017;-78
2021/04/17 07:40:40;;;;;;;5.03;2.45;;;17.90;48.90;;;;;;6214271;23;20000;-78
2021/04/17 07:43:05;;;;;;;3.45;1.92;;;18.00;48.80;;;;;;6214027;23;20001;-80
2021/04/17 07:45:37;;;;;;;5.38;2.20;;;18.00;48.70;;;;;;6214077;23;20076;-76
2021/04/17 07:48:25;;;;;;;4.53;2.20;;;18.10;48.50;;;;;;6187138;23;20020;-76
2021/04/17 07:50:51;;;;;;;6.35;2.20;;;18.10;48.50;;;;;;6214082;23;20005;-75
2021/04/17 07:53:31;;;;;;;6.45;2.05;;;18.20;48.40;;;;;;6214053;23;20000;-77
2021/04/17 07:56:17;;;;;;;4.90;1.92;;;18.30;48.40;;;;;;6214660;23;20035;-77
2021/04/17 07:58:47;;;;;;;5.13;1.88;;;18.30;48.50;;;;;;6186046;23;20008;-80
2021/04/17 08:01:18;;;;;;;6.28;1.73;;;18.40;48.70;;;;;;6207044;23;20441;-76
2021/04/17 08:03:46;;;;;;;8.60;1.85;;;18.50;48.10;;;;;;6209853;23;20470;-74
2021/04/17 08:06:12;;;;;;;8.13;1.40;;;18.60;48.20;;;;;;6212908;23;20065;-77
2021/04/17 08:08:40;;;;;;;5.00;1.67;;;18.60;47.90;;;;;;6212659;23;20062;-73
2021/04/17 08:11:07;;;;;;;8.40;1.50;;;18.60;47.80;;;;;;6212796;23;20445;-75
2021/04/17 08:13:33;;;;;;;3.15;1.30;;;18.80;47.80;;;;;;6212961;23;20047;-74
2021/04/17 08:16:00;;;;;;;5.07;2.10;;;18.80;47.60;;;;;;6212827;23;20322;-74
2021/04/17 08:18:27;;;;;;;8.57;1.35;;;18.80;47.40;;;;;;6211441;23;20001;-74
2021/04/17 08:20:53;;;;;;;4.68;1.63;;;18.90;47.40;;;;;;6212661;23;20016;-73
2021/04/17 08:23:20;;;;;;;3.15;1.30;;;18.90;47.20;;;;;;6213688;23;19996;-74
2021/04/17 08:25:53;;;;;;;3.88;1.30;;;18.90;47.20;;;;;;6213089;23;20031;-76
2021/04/17 08:28:21;;;;;;;4.93;1.52;;;18.90;47.10;;;;;;6213376;23;20066;-75
2021/04/17 08:30:47;;;;;;;3.13;1.50;;;19.00;47.10;;;;;;6213369;23;19997;-74
2021/04/17 08:33:16;;;;;;;6.22;1.08;;;19.00;47.10;;;;;;6213317;23;20000;-74
2021/04/17 08:35:43;;;;;;;10.57;1.30;;;19.10;47.20;;;;;;6213220;23;20381;-78
2021/04/17 08:38:11;;;;;;;9.48;1.27;;;19.10;47.40;;;;;;6213240;23;20012;-76
2021/04/17 08:40:37;;;;;;;13.40;1.48;;;19.20;47.90;;;;;;6187077;23;20433;-77
2021/04/17 08:43:16;;;;;;;7.07;1.33;;;19.20;47.90;;;;;;6186644;23;20079;-76
2021/04/17 08:46:07;;;;;;;10.82;0.93;;;19.30;47.60;;;;;;6186712;23;20001;-76
2021/04/17 08:48:51;;;;;;;3.08;0.98;;;19.30;47.40;;;;;;6213353;23;20023;-76
2021/04/17 08:51:22;;;;;;;5.72;1.60;;;19.40;47.30;;;;;;6213406;23;20001;-76
2021/04/17 08:54:01;;;;;;;3.92;1.88;;;19.40;47.30;;;;;;6186841;23;20349;-76
2021/04/17 08:56:56;;;;;;;5.38;1.30;;;19.50;47.30;;;;;;6213412;23;20004;-76
2021/04/17 08:59:30;;;;;;;3.08;1.23;;;19.50;47.30;;;;;;6213600;23;20001;-77
2021/04/17 09:01:59;;;;;;;3.55;1.00;;;19.60;47.30;;;;;;6213822;23;20005;-76
2021/04/17 09:04:26;;;;;;;2.28;0.80;;;19.60;47.30;;;;;;6215541;23;20028;-79
2021/04/17 09:06:54;;;;;;;5.22;1.63;;;19.60;47.40;;;;;;6215455;23;20473;-76
2021/04/17 09:09:24;;;;;;;6.78;1.42;;;19.60;47.50;;;;;;6188682;23;20009;-77
2021/04/17 09:12:06;;;;;;;4.75;1.10;;;19.70;47.60;;;;;;6215512;23;20031;-77
2021/04/17 09:14:32;;;;;;;3.92;1.05;;;19.70;48.20;;;;;;6215965;23;20007;-78
2021/04/17 09:17:02;;;;;;;5.10;1.08;;;19.80;47.90;;;;;;6189096;23;20008;-76
2021/04/17 09:19:49;;;;;;;3.45;0.95;;;19.80;47.80;;;;;;6215579;23;20012;-75
2021/04/17 09:22:33;;;;;;;5.63;0.95;;;19.80;48.20;;;;;;6195395;23;20357;-75
2021/04/17 09:25:02;;;;;;;5.28;1.15;;;19.90;48.20;;;;;;6215511;23;20003;-76
2021/04/17 09:27:32;;;;;;;2.15;0.80;;;19.90;48.20;;;;;;6215133;23;20129;-76
2021/04/17 09:30:03;;;;;;;2.55;0.90;;;20.00;48.30;;;;;;6215130;23;20009;-76
2021/04/17 09:32:41;;;;;;;4.15;0.90;;;20.00;48.10;;;;;;6215165;23;20464;-77
2021/04/17 09:35:34;;;;;;;3.53;0.82;;;20.00;48.10;;;;;;6215310;23;20023;-77
2021/04/17 09:38:09;;;;;;;3.13;0.90;;;20.10;48.10;;;;;;6189095;23;20016;-76
2021/04/17 09:40:44;;;;;;;5.00;1.20;;;20.10;48.00;;;;;;6215367;23;20515;-77
2021/04/17 09:43:34;;;;;;;5.10;1.20;;;20.10;47.90;;;;;;6215255;23;20345;-76
2021/04/17 09:46:16;;;;;;;3.92;1.95;;;20.20;47.80;;;;;;6201427;23;20235;-76
2021/04/17 09:48:45;;;;;;;2.42;1.00;;;20.20;48.20;;;;;;6188362;23;20017;-77
2021/04/17 09:51:22;;;;;;;3.20;0.70;;;20.20;47.60;;;;;;6188462;23;20005;-77
2021/04/17 09:53:50;;;;;;;1.40;0.70;;;20.30;47.50;;;;;;6215299;23;20004;-77
2021/04/17 09:56:44;;;;;;;4.15;1.10;;;20.30;47.40;;;;;;6215052;23;20042;-78
2021/04/17 09:59:15;;;;;;;1.63;0.90;;;20.40;47.50;;;;;;6188093;23;20437;-77
2021/04/17 10:01:59;;;;;;;4.47;1.00;;;20.40;47.30;;;;;;6214537;23;20004;-78
2021/04/17 10:04:48;;;;;;;1.95;0.90;;;20.40;47.30;;;;;;6215117;23;20011;-79
2021/04/17 10:07:14;;;;;;;6.20;1.38;;;20.50;47.30;;;;;;6188098;23;20005;-77
2021/04/17 10:09:39;;;;;;;3.92;0.95;;;20.50;47.20;;;;;;6214616;23;20031;-77
2021/04/17 10:12:08;;;;;;;3.35;0.98;;;20.50;47.40;;;;;;6214488;23;19996;-77
2021/04/17 10:14:34;;;;;;;9.27;1.45;;;20.50;47.30;;;;;;6214629;23;20392;-78
2021/04/17 10:17:00;;;;;;;4.00;1.00;;;20.50;47.30;;;;;;6188235;23;20063;-78
2021/04/17 10:19:29;;;;;;;3.63;0.75;;;20.50;47.20;;;;;;6214792;23;20028;-78
2021/04/17 10:21:58;;;;;;;5.20;0.90;;;20.50;47.10;;;;;;6188084;23;20036;-77
2021/04/17 10:24:27;;;;;;;1.80;0.60;;;20.60;47.10;;;;;;6214574;23;20032;-78
2021/04/17 10:27:10;;;;;;;3.90;0.80;;;20.70;46.90;;;;;;6215022;23;20016;-78
2021/04/17 10:29:37;;;;;;;2.13;0.63;;;20.80;46.80;;;;;;6215522;23;20008;-78
2021/04/17 10:32:19;;;;;;;5.55;1.05;;;20.80;46.70;;;;;;6215356;23;20001;-77
2021/04/17 10:35:00;;;;;;;2.28;0.80;;;20.90;46.60;;;;;;6214504;23;20532;-77
2021/04/17 10:37:26;;;;;;;3.20;0.90;;;20.90;46.50;;;;;;6214397;23;20011;-78
2021/04/17 10:40:04;;;;;;;2.35;0.75;;;20.90;46.50;;;;;;6187819;23;20009;-75
2021/04/17 10:42:51;;;;;;;3.88;1.05;;;20.90;46.40;;;;;;6214511;23;20028;-77
2021/04/17 10:45:40;;;;;;;3.55;1.02;;;21.00;46.60;;;;;;6213949;23;20005;-75
2021/04/17 10:48:09;;;;;;;3.55;1.50;;;21.10;46.90;;;;;;6213829;23;20390;-76
2021/04/17 10:50:44;;;;;;;3.28;0.80;;;21.20;47.60;;;;;;6214951;23;20001;-76
2021/04/17 10:53:13;;;;;;;1.98;0.70;;;21.20;47.90;;;;;;6214149;23;20449;-75
2021/04/17 10:55:48;;;;;;;4.80;0.80;;;21.20;48.10;;;;;;6213780;23;20000;-75
2021/04/17 10:58:20;;;;;;;1.90;0.70;;;21.30;48.60;;;;;;6212909;23;20004;-76
2021/04/17 11:00:49;;;;;;;2.90;0.93;;;21.30;49.00;;;;;;6213089;23;20004;-75
2021/04/17 11:03:14;;;;;;;4.43;1.17;;;21.40;49.10;;;;;;6214238;23;20004;-75
2021/04/17 11:05:40;;;;;;;3.22;0.93;;;21.40;49.20;;;;;;6213864;23;20003;-75
2021/04/17 11:08:06;;;;;;;4.60;0.85;;;21.50;49.10;;;;;;6214493;23;20090;-76
2021/04/17 11:10:37;;;;;;;2.05;0.82;;;21.50;49.10;;;;;;6214333;23;20495;-75
2021/04/17 11:13:06;;;;;;;1.67;0.82;;;21.60;49.20;;;;;;6214315;23;20050;-75
2021/04/17 11:15:33;;;;;;;4.50;0.93;;;21.60;49.10;;;;;;6214144;23;20004;-75
2021/04/17 11:18:12;;;;;;;3.65;0.80;;;21.70;49.00;;;;;;6214276;23;20008;-76
2021/04/17 11:20:56;;;;;;;4.90;0.75;;;21.80;48.90;;;;;;6214127;23;20492;-75
2021/04/17 11:23:32;;;;;;;4.10;1.10;;;21.80;48.70;;;;;;6205306;23;20009;-75
2021/04/17 11:25:58;;;;;;;2.10;0.85;;;21.90;48.60;;;;;;6212651;23;19997;-76
2021/04/17 11:28:24;;;;;;;5.88;0.90;;;22.00;48.50;;;;;;6212859;23;20070;-76
2021/04/17 11:30:51;;;;;;;2.65;0.77;;;22.00;48.40;;;;;;6213242;23;20079;-75
2021/04/17 11:33:17;;;;;;;3.13;1.05;;;22.00;48.30;;;;;;6212619;23;20003;-76
2021/04/17 11:35:42;;;;;;;2.92;0.90;;;22.00;48.70;;;;;;6207043;23;20005;-75
2021/04/17 11:38:08;;;;;;;2.78;0.70;;;22.10;48.70;;;;;;6204760;23;20087;-77
2021/04/17 11:40:33;;;;;;;3.00;0.80;;;22.00;48.70;;;;;;6211612;23;20037;-75
2021/04/17 11:42:59;;;;;;;2.72;0.98;;;22.00;48.60;;;;;;6210298;23;20512;-76
2021/04/17 11:45:25;;;;;;;6.97;1.23;;;22.10;48.40;;;;;;6208469;23;20352;-75
2021/04/17 11:47:50;;;;;;;2.10;0.93;;;22.10;48.30;;;;;;6207560;23;20013;-75
2021/04/17 11:50:16;;;;;;;3.28;0.70;;;22.10;48.50;;;;;;6212925;23;19997;-74
2021/04/17 11:52:42;;;;;;;3.92;0.98;;;22.10;48.10;;;;;;6186553;23;20453;-76
2021/04/17 11:55:08;;;;;;;1.48;0.60;;;22.10;48.10;;;;;;6212897;23;20001;-75
2021/04/17 11:57:33;;;;;;;2.05;0.88;;;22.10;47.90;;;;;;6212712;23;20000;-75
2021/04/17 12:00:01;;;;;;;2.83;0.85;;;22.10;47.80;;;;;;6212875;23;20485;-75
2021/04/17 12:02:27;;;;;;;2.13;0.80;;;22.10;47.50;;;;;;6212305;23;20000;-75
2021/04/17 12:04:52;;;;;;;2.88;0.80;;;22.10;47.60;;;;;;6211558;23;20008;-74
2021/04/17 12:07:21;;;;;;;4.05;0.75;;;22.10;47.40;;;;;;6212053;23;20004;-73
2021/04/17 12:09:46;;;;;;;2.22;0.68;;;22.10;47.30;;;;;;6211792;23;20011;-73
2021/04/17 12:12:12;;;;;;;1.70;0.80;;;22.00;47.30;;;;;;6212003;23;20071;-74
2021/04/17 12:14:38;;;;;;;1.85;0.77;;;22.00;47.50;;;;;;6186326;23;20452;-75
2021/04/17 12:17:03;;;;;;;3.65;0.85;;;21.90;47.50;;;;;;6213009;23;20000;-74
2021/04/17 12:19:29;;;;;;;2.75;0.90;;;21.80;47.30;;;;;;6212943;23;20000;-77
2021/04/17 12:21:54;;;;;;;4.45;1.45;;;21.80;47.30;;;;;;6212602;23;20392;-77
2021/04/17 12:24:20;;;;;;;5.85;1.48;;;21.80;47.20;;;;;;6213103;23;19997;-74
2021/04/17 12:26:46;;;;;;;4.18;1.67;;;21.70;47.00;;;;;;6212383;23;20000;-75
2021/04/17 12:29:12;;;;;;;4.72;1.17;;;21.70;46.90;;;;;;6213020;23;20008;-74
2021/04/17 12:31:37;;;;;;;5.07;1.33;;;21.70;46.90;;;;;;6212029;23;20039;-75
2021/04/17 12:34:03;;;;;;;2.72;1.23;;;21.60;46.80;;;;;;6213094;23;20007;-74
2021/04/17 12:36:29;;;;;;;4.90;1.27;;;21.60;46.60;;;;;;6212441;23;20055;-74
2021/04/17 12:38:54;;;;;;;6.07;2.00;;;21.60;46.60;;;;;;6211100;23;20020;-74
2021/04/17 12:41:21;;;;;;;6.32;2.92;;;21.60;46.70;;;;;;6212043;23;20008;-74
2021/04/17 12:43:46;;;;;;;5.97;2.70;;;21.50;46.70;;;;;;6212310;23;20009;-74
2021/04/17 12:46:13;;;;;;;6.55;2.63;;;21.50;46.60;;;;;;6212543;23;20091;-75
2021/04/17 12:48:39;;;;;;;8.02;3.25;;;21.50;46.50;;;;;;6212344;23;20013;-74
2021/04/17 12:51:05;;;;;;;6.18;3.10;;;21.50;46.40;;;;;;6212345;23;20012;-74
2021/04/17 12:53:30;;;;;;;6.75;3.45;;;21.60;46.40;;;;;;6212314;23;20014;-74
2021/04/17 12:55:56;;;;;;;6.85;3.75;;;21.60;46.70;;;;;;6212371;23;20436;-74